Time;durP1;ratioP1;P1;durP2;ratioP2;P2;SDS_P1;SDS_P2;PMS_P1;PMS_P2;Temp;Humidity;BMP_temperature;BMP_pressure;BME280_temperature;BME280_humidity;BME280_pressure;Samples;Min_cycle;Max_cycle;Signal;HPM_P1;HPM_P2
2023/02/04 00:00:06;;;;;;;4.40;3.67;;;7.80;99.90;;;;;;4974956;28;20443;-71
2023/02/04 00:02:32;;;;;;;4.03;3.33;;;7.80;99.90;;;;;;4974902;28;20617;-71
2023/02/04 00:04:58;;;;;;;4.17;3.40;;;7.80;99.90;;;;;;4974843;28;20857;-72
2023/02/04 00:07:23;;;;;;;4.73;3.27;;;7.80;99.90;;;;;;4974947;28;20464;-73
2023/02/04 00:09:49;;;;;;;4.80;3.43;;;7.70;99.90;;;;;;4974675;28;20666;-71
2023/02/04 00:12:15;;;;;;;3.90;3.10;;;7.70;99.90;;;;;;4974791;28;20205;-71
2023/02/04 00:14:40;;;;;;;3.60;3.30;;;7.70;99.90;;;;;;4974226;28;20250;-71
2023/02/04 00:17:06;;;;;;;3.33;3.03;;;7.70;99.90;;;;;;4974570;28;20920;-72
2023/02/04 00:19:32;;;;;;;4.03;3.60;;;7.70;99.90;;;;;;4974612;28;20724;-72
2023/02/04 00:21:58;;;;;;;4.13;3.40;;;7.60;99.90;;;;;;4974548;28;20454;-73
2023/02/04 00:24:23;;;;;;;2.90;2.70;;;7.70;99.90;;;;;;4974277;28;20472;-72
2023/02/04 00:26:49;;;;;;;2.90;2.63;;;7.70;99.90;;;;;;4956913;28;20219;-72
2023/02/04 00:29:15;;;;;;;6.50;3.20;;;7.70;99.90;;;;;;4957087;28;20194;-70
2023/02/04 00:31:40;;;;;;;3.07;2.77;;;7.70;99.90;;;;;;4973835;28;20594;-71
2023/02/04 00:34:06;;;;;;;3.00;2.70;;;7.70;99.90;;;;;;4974050;28;20680;-71
2023/02/04 00:36:31;;;;;;;2.80;2.30;;;7.70;99.90;;;;;;4974036;28;20195;-72
2023/02/04 00:38:57;;;;;;;2.47;2.37;;;7.70;99.90;;;;;;4973956;28;20208;-71
2023/02/04 00:41:22;;;;;;;2.10;2.00;;;7.70;99.90;;;;;;4974135;28;20716;-71
2023/02/04 00:43:47;;;;;;;2.47;2.37;;;7.70;99.90;;;;;;4973808;28;20201;-72
2023/02/04 00:46:13;;;;;;;3.90;2.23;;;7.80;99.90;;;;;;4973911;28;20216;-71
2023/02/04 00:48:38;;;;;;;5.60;3.43;;;7.80;99.90;;;;;;4973821;28;20272;-72
2023/02/04 00:51:04;;;;;;;3.20;2.63;;;7.70;99.90;;;;;;4973754;28;20685;-72
2023/02/04 00:53:30;;;;;;;3.40;3.17;;;7.70;99.90;;;;;;4972980;28;20186;-70
2023/02/04 00:55:55;;;;;;;5.03;3.97;;;7.80;99.90;;;;;;4956171;28;20191;-72
2023/02/04 00:58:21;;;;;;;4.70;3.90;;;7.70;99.90;;;;;;4973848;28;20279;-72
2023/02/04 01:00:46;;;;;;;5.47;4.37;;;7.70;99.90;;;;;;4973359;28;20707;-73
2023/02/04 01:03:12;;;;;;;4.80;4.40;;;7.60;99.90;;;;;;4973552;28;20274;-72
2023/02/04 01:05:37;;;;;;;5.23;4.20;;;7.60;99.90;;;;;;4973299;28;20228;-72
2023/02/04 01:08:03;;;;;;;7.00;4.63;;;7.60;99.90;;;;;;4973670;28;20656;-74
2023/02/04 01:10:28;;;;;;;5.10;4.60;;;7.50;99.90;;;;;;4973498;28;20240;-72
2023/02/04 01:12:54;;;;;;;4.27;3.87;;;7.50;99.90;;;;;;4973409;28;20195;-72
2023/02/04 01:15:21;;;;;;;4.37;3.97;;;7.50;99.90;;;;;;4973202;28;20223;-73
2023/02/04 01:17:47;;;;;;;5.13;4.70;;;7.40;99.90;;;;;;4973321;28;20238;-71
2023/02/04 01:20:12;;;;;;;5.53;5.07;;;7.40;99.90;;;;;;4973350;28;20442;-72
2023/02/04 01:22:38;;;;;;;6.33;5.30;;;7.40;99.90;;;;;;4973471;28;20285;-71
2023/02/04 01:25:04;;;;;;;5.23;4.73;;;7.40;99.90;;;;;;4972987;28;20721;-72
2023/02/04 01:27:29;;;;;;;5.60;4.87;;;7.40;99.90;;;;;;4973289;28;20214;-73
2023/02/04 01:29:55;;;;;;;5.80;5.20;;;7.40;99.90;;;;;;4973127;28;20433;-72
2023/02/04 01:32:20;;;;;;;5.60;5.10;;;7.40;99.90;;;;;;4973121;28;20591;-72
2023/02/04 01:34:46;;;;;;;5.10;4.60;;;7.40;99.90;;;;;;4972816;28;20195;-72
2023/02/04 01:37:11;;;;;;;5.30;4.63;;;7.40;99.90;;;;;;4973197;28;20187;-72
2023/02/04 01:39:37;;;;;;;5.20;3.63;;;7.30;99.90;;;;;;4972804;28;20197;-73
2023/02/04 01:42:03;;;;;;;4.57;2.60;;;7.30;99.90;;;;;;4972922;28;20276;-72
2023/02/04 01:44:29;;;;;;;4.87;2.57;;;7.40;99.90;;;;;;4972298;28;20282;-73
2023/02/04 01:46:54;;;;;;;2.20;1.70;;;7.30;99.90;;;;;;4972818;28;21071;-72
2023/02/04 01:49:20;;;;;;;5.70;1.97;;;7.30;99.90;;;;;;4973088;28;20272;-72
2023/02/04 01:51:46;;;;;;;3.07;1.60;;;7.30;99.90;;;;;;4973251;28;20661;-73
2023/02/04 01:54:13;;;;;;;1.70;1.60;;;7.20;99.90;;;;;;4955660;28;20661;-74
2023/02/04 01:56:41;;;;;;;3.37;1.70;;;7.20;99.90;;;;;;4972308;28;20205;-73
2023/02/04 01:59:17;;;;;;;1.63;1.53;;;7.30;99.90;;;;;;4972529;28;20423;-72
2023/02/04 03:32:20;;;;;;;5.83;2.77;;;6.60;99.90;;;;;;5270838;22;20599;-72
2023/02/04 03:34:45;;;;;;;5.60;1.67;;;6.60;99.90;;;;;;5012383;28;20961;-74
2023/02/04 03:37:11;;;;;;;4.03;1.70;;;6.60;99.90;;;;;;4996774;28;20273;-72
2023/02/04 03:39:37;;;;;;;7.40;2.37;;;6.60;99.90;;;;;;4996745;28;20198;-71
2023/02/04 03:42:02;;;;;;;3.47;1.63;;;6.60;99.90;;;;;;5013966;28;20313;-72
2023/02/04 03:44:28;;;;;;;4.77;1.47;;;6.60;99.90;;;;;;5013581;28;20185;-72
2023/02/04 03:46:54;;;;;;;10.93;2.80;;;6.60;99.90;;;;;;5013832;28;20240;-72
2023/02/04 03:49:23;;;;;;;4.27;1.60;;;6.50;99.90;;;;;;5013765;28;20186;-72
2023/02/04 03:51:48;;;;;;;8.53;2.13;;;6.60;99.90;;;;;;5013630;28;20821;-72
2023/02/04 03:54:14;;;;;;;5.50;1.90;;;6.50;99.90;;;;;;5013726;28;20419;-72
2023/02/04 03:56:39;;;;;;;5.23;1.93;;;6.50;99.90;;;;;;5013580;28;20235;-71
2023/02/04 03:59:05;;;;;;;3.67;2.03;;;6.40;99.90;;;;;;5013151;28;20655;-74
2023/02/04 04:01:31;;;;;;;3.10;2.20;;;6.50;99.90;;;;;;5013554;28;20204;-72
2023/02/04 04:03:56;;;;;;;8.77;2.10;;;6.40;99.90;;;;;;5014411;28;20195;-72
2023/02/04 04:06:21;;;;;;;10.10;2.53;;;6.40;99.90;;;;;;5013389;28;20213;-72
2023/02/04 04:08:47;;;;;;;4.30;2.33;;;6.40;99.90;;;;;;5013137;28;20212;-72
2023/02/04 04:11:13;;;;;;;9.00;3.20;;;6.50;99.90;;;;;;5013524;28;20270;-72
2023/02/04 04:13:38;;;;;;;5.37;2.47;;;6.50;99.90;;;;;;5013467;28;20183;-71
2023/02/04 04:16:04;;;;;;;8.10;2.23;;;6.40;99.90;;;;;;5013328;28;20201;-72
2023/02/04 04:18:31;;;;;;;4.03;2.23;;;6.50;99.90;;;;;;5013477;28;20185;-72
2023/02/04 04:20:57;;;;;;;9.60;2.93;;;6.50;99.90;;;;;;5013001;28;20211;-72
2023/02/04 04:23:23;;;;;;;9.83;2.93;;;6.40;99.90;;;;;;5013203;28;20439;-72
2023/02/04 04:25:49;;;;;;;7.07;2.80;;;6.40;99.90;;;;;;5012801;28;20470;-72
2023/02/04 04:28:14;;;;;;;9.20;3.60;;;6.40;99.90;;;;;;4995715;28;20710;-72
2023/02/04 04:30:40;;;;;;;5.83;3.00;;;6.40;99.90;;;;;;5013216;28;20210;-72
2023/02/04 04:33:05;;;;;;;3.20;2.20;;;6.40;99.90;;;;;;5012926;28;20691;-72
2023/02/04 04:35:31;;;;;;;6.10;2.13;;;6.40;99.90;;;;;;5013174;28;20196;-72
2023/02/04 04:37:57;;;;;;;9.03;2.80;;;6.40;99.90;;;;;;5013055;28;20185;-72
2023/02/04 04:40:22;;;;;;;3.87;1.97;;;6.40;99.90;;;;;;5013077;28;20191;-72
2023/02/04 04:42:48;;;;;;;2.63;2.43;;;6.40;99.90;;;;;;5011621;28;20236;-71
2023/02/04 04:45:13;;;;;;;7.97;2.63;;;6.40;99.90;;;;;;5012830;28;20674;-71
2023/02/04 04:47:39;;;;;;;3.93;2.27;;;6.40;99.90;;;;;;5012922;28;20246;-71
2023/02/04 04:50:05;;;;;;;5.00;2.27;;;6.40;99.90;;;;;;5012547;28;20196;-72
2023/02/04 04:52:30;;;;;;;8.40;2.77;;;6.40;99.90;;;;;;5012626;28;20258;-72
2023/02/04 04:54:56;;;;;;;5.97;2.43;;;6.40;99.90;;;;;;5012454;28;20212;-71
2023/02/04 04:57:21;;;;;;;5.07;2.60;;;6.40;99.90;;;;;;5012622;28;20201;-72
2023/02/04 04:59:47;;;;;;;4.20;2.03;;;6.40;99.90;;;;;;5011909;28;20670;-72
2023/02/04 05:02:13;;;;;;;3.63;2.57;;;6.50;99.90;;;;;;5012874;28;20211;-72
2023/02/04 05:04:38;;;;;;;3.00;2.60;;;6.50;99.90;;;;;;5012407;28;20197;-72
2023/02/04 05:07:04;;;;;;;4.10;2.77;;;6.40;99.90;;;;;;5012442;28;20497;-72
2023/02/04 05:09:29;;;;;;;5.47;3.73;;;6.40;99.90;;;;;;5012521;28;20212;-73
2023/02/04 05:11:55;;;;;;;6.40;3.80;;;6.40;99.90;;;;;;5012013;28;20246;-72
2023/02/04 05:14:21;;;;;;;3.97;3.57;;;6.40;99.90;;;;;;5012392;28;20189;-73
2023/02/04 05:16:46;;;;;;;7.23;3.20;;;6.40;99.90;;;;;;5012108;28;20204;-72
2023/02/04 05:19:12;;;;;;;10.70;3.30;;;6.40;99.90;;;;;;5011600;28;20205;-73
2023/02/04 05:21:37;;;;;;;6.43;2.70;;;6.30;99.90;;;;;;5012182;28;20691;-72
2023/02/04 05:24:05;;;;;;;6.77;3.00;;;6.30;99.90;;;;;;5011958;28;20660;-72
2023/02/04 05:26:31;;;;;;;4.03;3.47;;;6.30;99.90;;;;;;5012227;28;20226;-73
2023/02/04 05:28:59;;;;;;;6.50;3.30;;;6.30;99.90;;;;;;5011957;28;20440;-72
2023/02/04 05:31:25;;;;;;;6.67;3.37;;;6.20;99.90;;;;;;4994555;28;20498;-74
2023/02/04 05:33:51;;;;;;;5.50;3.50;;;6.30;99.90;;;;;;5012094;28;20432;-76
2023/02/04 05:36:19;;;;;;;10.37;3.93;;;6.30;99.90;;;;;;5012134;28;20794;-71
2023/02/04 05:38:44;;;;;;;15.27;4.10;;;6.20;99.90;;;;;;5011866;28;20239;-71
2023/02/04 05:41:10;;;;;;;6.60;3.40;;;6.20;99.90;;;;;;4994634;28;20465;-72
2023/02/04 05:43:35;;;;;;;6.23;3.50;;;6.20;99.90;;;;;;5012203;28;20197;-72
2023/02/04 05:46:01;;;;;;;10.73;4.53;;;6.20;99.90;;;;;;5011596;28;20217;-72
2023/02/04 05:48:27;;;;;;;9.63;4.10;;;6.20;99.90;;;;;;5012041;28;20243;-72
2023/02/04 05:50:52;;;;;;;5.70;3.70;;;6.20;99.90;;;;;;5011958;28;20440;-72
2023/02/04 05:53:18;;;;;;;14.07;4.00;;;6.20;99.90;;;;;;5012152;28;20229;-72
2023/02/04 05:55:43;;;;;;;9.87;4.30;;;6.20;99.90;;;;;;5011406;28;20528;-71
2023/02/04 05:58:09;;;;;;;13.70;3.93;;;6.20;99.90;;;;;;5011631;28;20189;-72
2023/02/04 06:00:34;;;;;;;16.50;4.63;;;6.20;99.90;;;;;;5011166;28;20199;-72
2023/02/04 06:03:00;;;;;;;14.80;4.60;;;6.10;99.90;;;;;;5011206;28;20188;-71
2023/02/04 06:05:25;;;;;;;4.70;3.80;;;6.10;99.90;;;;;;5012357;28;20192;-72
2023/02/04 06:07:51;;;;;;;14.90;4.70;;;6.00;99.90;;;;;;5011282;28;20218;-72
2023/02/04 06:10:17;;;;;;;14.07;6.47;;;6.00;99.90;;;;;;4994335;28;20178;-72
2023/02/04 06:12:42;;;;;;;13.57;4.53;;;6.00;99.90;;;;;;5011232;28;20232;-72
2023/02/04 06:15:08;;;;;;;18.80;5.50;;;6.00;99.90;;;;;;5010861;28;20460;-72
2023/02/04 06:17:34;;;;;;;16.13;6.17;;;6.00;99.90;;;;;;5011479;28;20649;-71
2023/02/04 06:20:00;;;;;;;14.37;5.03;;;6.00;99.90;;;;;;5011383;28;20450;-71
2023/02/04 06:22:25;;;;;;;10.13;5.53;;;6.00;99.90;;;;;;5011685;28;20227;-71
2023/02/04 06:24:51;;;;;;;14.20;5.10;;;5.90;99.90;;;;;;5010725;28;20184;-70
2023/02/04 06:27:22;;;;;;;18.83;5.77;;;5.90;99.90;;;;;;5011258;28;20212;-71
2023/02/04 06:29:48;;;;;;;16.93;6.67;;;5.90;99.90;;;;;;5012011;28;20549;-69
2023/02/04 06:32:14;;;;;;;13.33;5.33;;;5.90;99.90;;;;;;5017556;28;20454;-71
2023/02/04 06:34:39;;;;;;;17.27;5.63;;;5.80;99.90;;;;;;5017522;28;20427;-71
2023/02/04 06:37:05;;;;;;;19.00;6.80;;;5.80;99.90;;;;;;5017674;28;20236;-71
2023/02/04 06:39:30;;;;;;;10.00;5.97;;;5.80;99.90;;;;;;5017751;28;20276;-71
2023/02/04 06:41:56;;;;;;;22.00;7.03;;;5.80;99.90;;;;;;5017718;28;20779;-71
2023/02/04 06:44:21;;;;;;;17.13;6.43;;;5.90;99.90;;;;;;5017792;28;20239;-70
2023/02/04 06:46:47;;;;;;;14.00;6.47;;;5.90;99.90;;;;;;5017395;28;20204;-70
2023/02/04 06:49:12;;;;;;;18.70;6.07;;;5.90;99.90;;;;;;5017441;28;20240;-70
2023/02/04 06:51:38;;;;;;;10.40;6.17;;;5.90;99.90;;;;;;5017746;28;20211;-70
2023/02/04 06:54:03;;;;;;;16.03;6.80;;;6.00;99.90;;;;;;5017928;28;20188;-70
2023/02/04 06:56:29;;;;;;;15.03;6.57;;;6.00;99.90;;;;;;5017823;28;20675;-70
2023/02/04 06:58:54;;;;;;;20.63;6.40;;;6.00;99.90;;;;;;5017372;28;20685;-70
2023/02/04 07:01:20;;;;;;;9.70;6.30;;;6.10;99.90;;;;;;5000678;28;20213;-71
2023/02/04 07:03:45;;;;;;;12.30;5.40;;;6.10;99.90;;;;;;5018989;28;20196;-70
2023/02/04 07:06:11;;;;;;;15.53;5.83;;;6.10;99.90;;;;;;5018145;28;20684;-70
2023/02/04 07:08:36;;;;;;;19.73;6.10;;;6.10;99.90;;;;;;5017969;28;20189;-71
2023/02/04 07:11:02;;;;;;;16.67;6.53;;;6.10;99.90;;;;;;5017424;28;20293;-69
2023/02/04 07:13:27;;;;;;;19.23;5.90;;;6.10;99.90;;;;;;5018456;28;20195;-70
2023/02/04 07:15:53;;;;;;;13.03;5.53;;;6.10;99.90;;;;;;5017977;28;20278;-69
2023/02/04 07:18:18;;;;;;;16.27;5.30;;;6.10;99.90;;;;;;5018178;28;20231;-71
2023/02/04 07:20:44;;;;;;;16.93;5.30;;;6.10;99.90;;;;;;5017325;28;20631;-70
2023/02/04 07:23:10;;;;;;;16.80;5.40;;;6.10;99.90;;;;;;5017257;28;20192;-70
2023/02/04 07:25:37;;;;;;;12.10;5.77;;;6.10;99.90;;;;;;5017022;28;20444;-71
2023/02/04 07:28:04;;;;;;;15.83;6.97;;;6.10;99.90;;;;;;5017074;28;20656;-70
2023/02/04 07:30:30;;;;;;;15.03;5.57;;;6.10;99.90;;;;;;4999622;28;20916;-71
2023/02/04 07:32:56;;;;;;;12.83;5.93;;;6.10;99.90;;;;;;5016812;28;20440;-71
2023/02/04 07:35:21;;;;;;;15.00;5.23;;;6.10;99.90;;;;;;5017172;28;20922;-70
2023/02/04 07:37:47;;;;;;;23.57;7.40;;;6.10;99.90;;;;;;5017418;28;20220;-70
2023/02/04 07:40:12;;;;;;;13.00;5.40;;;6.10;99.90;;;;;;5017339;28;20197;-71
2023/02/04 07:42:38;;;;;;;14.80;5.67;;;6.10;99.90;;;;;;5014225;28;20566;-70
2023/02/04 07:45:04;;;;;;;13.17;5.13;;;6.10;99.90;;;;;;5013935;28;20201;-70
2023/02/04 07:47:29;;;;;;;10.27;5.00;;;6.10;99.90;;;;;;5014445;28;20220;-70
2023/02/04 07:49:55;;;;;;;16.23;5.77;;;6.00;99.90;;;;;;5014066;28;20202;-70
2023/02/04 07:52:22;;;;;;;14.40;5.10;;;6.10;99.90;;;;;;5014179;28;20608;-70
2023/02/04 07:54:48;;;;;;;17.70;4.83;;;6.10;99.90;;;;;;5013843;28;20464;-71
2023/02/04 07:57:13;;;;;;;15.83;4.67;;;6.10;99.90;;;;;;4996683;28;20782;-71
2023/02/04 07:59:39;;;;;;;16.27;5.57;;;6.10;99.90;;;;;;5013989;28;20239;-70
2023/02/04 08:02:05;;;;;;;17.03;5.30;;;6.10;99.90;;;;;;5014005;28;20261;-70
2023/02/04 08:04:31;;;;;;;14.00;5.70;;;6.10;99.90;;;;;;5014528;28;20254;-70
2023/02/04 08:06:56;;;;;;;21.47;5.83;;;6.10;99.90;;;;;;5013559;28;20984;-71
2023/02/04 08:09:23;;;;;;;19.60;5.57;;;6.10;99.90;;;;;;5013759;28;20677;-70
2023/02/04 08:11:48;;;;;;;17.83;5.80;;;6.10;99.90;;;;;;5013695;28;20206;-71
2023/02/04 08:14:14;;;;;;;16.80;6.97;;;6.10;99.90;;;;;;5013629;28;20438;-70
2023/02/04 08:16:39;;;;;;;14.63;5.70;;;6.20;99.90;;;;;;5013964;28;20195;-70
2023/02/04 08:19:05;;;;;;;11.17;5.90;;;6.20;99.90;;;;;;5013495;28;20207;-70
2023/02/04 08:21:30;;;;;;;19.93;6.67;;;6.30;99.90;;;;;;5013770;28;20288;-70
2023/02/04 08:23:55;;;;;;;17.27;6.03;;;6.40;99.90;;;;;;5013422;28;20202;-70
2023/02/04 08:26:21;;;;;;;15.07;6.43;;;6.50;99.90;;;;;;5013430;28;20211;-70
2023/02/04 08:28:46;;;;;;;11.60;6.30;;;6.60;99.90;;;;;;5004270;28;20206;-70
2023/02/04 08:31:12;;;;;;;15.27;6.03;;;6.60;99.90;;;;;;5012962;28;20737;-70
2023/02/04 08:33:38;;;;;;;13.30;7.00;;;6.70;99.90;;;;;;5013445;28;20217;-70
2023/02/04 08:36:05;;;;;;;15.03;7.47;;;6.70;99.90;;;;;;4996067;28;20188;-70
2023/02/04 08:38:31;;;;;;;16.27;6.60;;;6.70;99.90;;;;;;5013640;28;20450;-70
2023/02/04 08:40:56;;;;;;;11.77;5.83;;;6.80;99.90;;;;;;5013052;28;20451;-71
2023/02/04 08:43:22;;;;;;;13.87;6.20;;;6.80;99.90;;;;;;5013715;28;20185;-71
2023/02/04 08:45:47;;;;;;;25.23;6.80;;;6.90;99.90;;;;;;5012977;28;20687;-70
2023/02/04 08:48:13;;;;;;;15.90;6.50;;;7.00;99.90;;;;;;5013127;28;20193;-70
2023/02/04 08:50:38;;;;;;;15.70;5.83;;;6.90;99.90;;;;;;5012995;28;20207;-70
2023/02/04 08:53:04;;;;;;;16.47;8.00;;;7.00;99.90;;;;;;5012809;28;20188;-69
2023/02/04 08:55:29;;;;;;;18.97;7.20;;;7.20;99.90;;;;;;5013091;28;20659;-71
2023/02/04 08:57:55;;;;;;;15.80;6.80;;;7.30;99.90;;;;;;5012841;28;20195;-70
2023/02/04 09:00:21;;;;;;;17.63;5.70;;;7.40;99.90;;;;;;5012892;28;20196;-69
2023/02/04 09:02:46;;;;;;;13.03;6.50;;;7.60;99.90;;;;;;5013394;28;20284;-71
2023/02/04 09:05:11;;;;;;;18.70;6.67;;;8.10;99.90;;;;;;5012529;28;20552;-70
2023/02/04 09:07:37;;;;;;;11.00;6.10;;;8.30;99.90;;;;;;5013091;28;20213;-70
2023/02/04 09:10:03;;;;;;;13.43;5.17;;;8.20;99.90;;;;;;5013118;28;20564;-69
2023/02/04 09:12:28;;;;;;;17.57;7.60;;;8.10;99.90;;;;;;5013005;28;20192;-71
2023/02/04 09:14:54;;;;;;;20.97;5.90;;;8.20;99.90;;;;;;5012219;28;20836;-68
2023/02/04 09:17:19;;;;;;;12.80;5.30;;;8.20;99.90;;;;;;5012712;28;20285;-70
2023/02/04 09:19:45;;;;;;;11.00;4.87;;;8.50;99.90;;;;;;5012401;28;20658;-70
2023/02/04 09:22:12;;;;;;;11.93;4.60;;;8.70;99.90;;;;;;5012361;28;20208;-69
2023/02/04 09:24:37;;;;;;;16.63;4.93;;;9.10;99.90;;;;;;5012050;28;20231;-70
2023/02/04 09:27:03;;;;;;;12.00;4.73;;;9.30;99.90;;;;;;5012407;28;20495;-71
2023/02/04 09:29:28;;;;;;;10.10;4.30;;;9.30;99.90;;;;;;5012120;28;20662;-72
2023/02/04 09:31:54;;;;;;;14.10;5.30;;;9.30;99.90;;;;;;5011838;28;20229;-71
2023/02/04 09:34:19;;;;;;;10.63;4.33;;;9.90;99.90;;;;;;5012077;28;20205;-70
2023/02/04 09:36:45;;;;;;;13.00;4.53;;;10.20;99.90;;;;;;5011905;28;20201;-71
2023/02/04 09:39:11;;;;;;;10.50;4.50;;;10.30;99.90;;;;;;5011909;28;20205;-71
2023/02/04 09:41:38;;;;;;;10.63;3.50;;;10.30;99.90;;;;;;5012172;28;20677;-71
2023/02/04 09:44:08;;;;;;;11.60;3.90;;;10.40;99.90;;;;;;5011563;28;20690;-72
2023/02/04 09:46:34;;;;;;;9.03;3.80;;;10.40;99.90;;;;;;5012338;28;20959;-71
2023/02/04 09:49:00;;;;;;;15.17;3.57;;;10.30;99.90;;;;;;5012215;28;20529;-71
2023/02/04 09:51:28;;;;;;;11.23;3.03;;;10.20;99.90;;;;;;5012056;28;20202;-72
2023/02/04 09:54:01;;;;;;;13.13;3.47;;;9.90;99.90;;;;;;5011889;28;20433;-72
2023/02/04 09:56:27;;;;;;;6.50;2.80;;;9.80;99.90;;;;;;5005616;28;20469;-71
2023/02/04 09:58:52;;;;;;;11.53;3.17;;;9.60;99.90;;;;;;5012302;28;20473;-73
2023/02/04 10:01:19;;;;;;;9.73;3.60;;;9.40;99.90;;;;;;5011745;28;20210;-72
2023/02/04 10:03:47;;;;;;;11.60;2.73;;;9.30;99.90;;;;;;4995074;28;20195;-72
2023/02/04 10:06:18;;;;;;;9.07;2.83;;;9.00;99.90;;;;;;5011095;28;20556;-73
2023/02/04 10:08:45;;;;;;;10.80;2.70;;;8.80;99.90;;;;;;5011927;28;20519;-72
2023/02/04 10:11:12;;;;;;;12.33;2.80;;;8.70;99.90;;;;;;5011419;28;20449;-73
2023/02/04 10:13:42;;;;;;;13.20;3.13;;;8.60;99.90;;;;;;5011711;28;20774;-72
2023/02/04 10:16:17;;;;;;;13.03;2.43;;;8.70;99.90;;;;;;5012181;28;20440;-72
2023/02/04 10:18:43;;;;;;;18.83;2.90;;;8.70;99.90;;;;;;5011869;28;20443;-71
2023/02/04 10:21:21;;;;;;;13.43;3.30;;;8.60;99.90;;;;;;5011548;28;20543;-71
2023/02/04 10:23:49;;;;;;;17.43;5.70;;;8.60;99.90;;;;;;5011179;28;20439;-71
2023/02/04 10:26:16;;;;;;;10.97;2.80;;;8.50;99.90;;;;;;5011345;28;20473;-71
2023/02/04 10:28:42;;;;;;;8.70;2.50;;;8.50;99.90;;;;;;5011602;28;20432;-72
2023/02/04 10:31:28;;;;;;;13.57;3.00;;;8.50;99.90;;;;;;5011454;28;20454;-71
2023/02/04 10:34:08;;;;;;;6.97;2.00;;;8.50;99.90;;;;;;5011233;28;20876;-71
2023/02/04 10:36:34;;;;;;;11.43;2.30;;;8.60;99.90;;;;;;5004698;28;20434;-71
2023/02/04 10:39:02;;;;;;;10.17;2.93;;;8.70;99.90;;;;;;4993588;28;20446;-70
2023/02/04 10:41:28;;;;;;;14.40;3.23;;;8.70;99.90;;;;;;5011491;28;20209;-72
2023/02/04 10:44:03;;;;;;;5.80;2.47;;;8.70;99.90;;;;;;5011004;28;20431;-71
2023/02/04 10:46:30;;;;;;;24.30;2.80;;;8.80;99.90;;;;;;5003751;28;20312;-73
2023/02/04 10:48:56;;;;;;;12.17;2.53;;;8.80;99.90;;;;;;5011246;28;20925;-71
2023/02/04 10:51:22;;;;;;;14.73;2.67;;;9.30;99.90;;;;;;5011001;28;20456;-72
2023/02/04 10:56:31;;;;;;;8.10;2.87;;;10.30;99.90;;;;;;5011793;28;20232;-71
2023/02/04 10:58:57;;;;;;;17.63;2.83;;;10.10;99.90;;;;;;5011121;28;20847;-71
2023/02/04 11:01:27;;;;;;;11.13;3.40;;;9.80;99.90;;;;;;5011033;28;20224;-72
2023/02/04 11:03:52;;;;;;;13.23;3.13;;;9.70;99.90;;;;;;5011209;28;20662;-71
2023/02/04 11:06:23;;;;;;;13.07;2.67;;;9.60;99.90;;;;;;5010776;28;20507;-72
2023/02/04 11:08:52;;;;;;;7.20;2.60;;;9.40;99.90;;;;;;5011072;28;20225;-72
2023/02/04 11:11:23;;;;;;;11.93;3.77;;;9.30;99.90;;;;;;5010708;28;20452;-72
2023/02/04 11:13:48;;;;;;;13.43;2.67;;;9.20;99.90;;;;;;5010951;28;20428;-71
2023/02/04 11:16:16;;;;;;;8.90;3.33;;;8.80;99.90;;;;;;5010573;28;20913;-71
2023/02/04 11:18:57;;;;;;;11.30;3.20;;;8.70;99.90;;;;;;5014824;28;20199;-70
2023/02/04 11:21:31;;;;;;;12.03;3.50;;;8.50;99.90;;;;;;5014336;28;20466;-69
2023/02/04 11:24:15;;;;;;;15.53;4.57;;;8.30;99.90;;;;;;5014555;28;20446;-69
2023/02/04 11:26:40;;;;;;;12.50;3.57;;;8.20;99.90;;;;;;5008415;28;20470;-72
2023/02/04 11:29:08;;;;;;;16.80;3.20;;;8.10;99.90;;;;;;4996862;28;20920;-69
2023/02/04 11:31:33;;;;;;;14.60;3.80;;;8.10;99.90;;;;;;5014320;28;20208;-69
2023/02/04 11:34:14;;;;;;;10.27;3.07;;;8.10;99.90;;;;;;5014148;28;20799;-69
2023/02/04 11:36:50;;;;;;;6.77;2.60;;;8.20;99.90;;;;;;5007792;28;20193;-69
2023/02/04 11:39:16;;;;;;;6.20;1.80;;;8.30;99.90;;;;;;4997013;28;20432;-69
2023/02/04 11:41:45;;;;;;;12.53;2.50;;;8.30;99.90;;;;;;5014112;28;20437;-70
2023/02/04 11:44:11;;;;;;;9.13;1.73;;;8.50;99.90;;;;;;5013930;28;20794;-70
2023/02/04 11:46:37;;;;;;;8.83;2.37;;;8.50;99.90;;;;;;5014068;28;20479;-70
2023/02/04 11:49:02;;;;;;;12.47;2.53;;;8.60;99.90;;;;;;5014075;28;20543;-69
2023/02/04 11:51:32;;;;;;;11.80;2.73;;;8.70;99.90;;;;;;5013775;28;20234;-71
2023/02/04 11:53:58;;;;;;;9.10;2.77;;;8.80;99.90;;;;;;5013672;28;20202;-70
2023/02/04 11:56:27;;;;;;;10.67;2.80;;;8.90;99.90;;;;;;5013585;28;20532;-71
2023/02/04 11:58:56;;;;;;;12.90;3.27;;;9.00;99.90;;;;;;5014085;28;20600;-70
2023/02/04 12:01:32;;;;;;;11.30;3.17;;;9.20;99.90;;;;;;5013621;28;20548;-70
2023/02/04 12:04:03;;;;;;;10.00;2.80;;;9.80;99.90;;;;;;5013594;28;20436;-70
2023/02/04 12:06:32;;;;;;;8.63;2.37;;;10.30;99.90;;;;;;5013681;28;20563;-70
2023/02/04 12:09:28;;;;;;;7.80;2.70;;;10.40;99.90;;;;;;5013684;28;20468;-70
2023/02/04 12:12:02;;;;;;;10.87;2.47;;;10.50;99.90;;;;;;5000751;28;20457;-69
2023/02/04 12:14:37;;;;;;;7.07;2.17;;;10.40;99.90;;;;;;5013609;28;20838;-69
2023/02/04 12:17:17;;;;;;;7.47;2.10;;;10.20;99.90;;;;;;5013799;28;20441;-70
2023/02/04 12:19:42;;;;;;;15.00;2.97;;;10.00;99.90;;;;;;5007551;28;20516;-70
2023/02/04 12:22:08;;;;;;;8.30;2.33;;;10.00;99.90;;;;;;5013591;28;20868;-68
2023/02/04 12:24:34;;;;;;;10.77;2.17;;;10.00;99.90;;;;;;5013450;28;20274;-70
2023/02/04 12:26:59;;;;;;;3.97;1.43;;;9.80;99.90;;;;;;5013518;28;20699;-70
2023/02/04 12:29:25;;;;;;;11.80;1.77;;;9.80;99.90;;;;;;5012699;28;20205;-71
2023/02/04 12:31:50;;;;;;;17.33;1.77;;;9.80;99.90;;;;;;5012975;28;20728;-71
2023/02/04 12:34:16;;;;;;;7.13;2.50;;;9.90;99.90;;;;;;5012937;28;20190;-70
2023/02/04 12:36:42;;;;;;;11.50;2.60;;;9.80;99.90;;;;;;5013013;28;20218;-70
2023/02/04 12:39:09;;;;;;;5.80;2.30;;;9.60;99.90;;;;;;5012913;28;20768;-69
2023/02/04 12:41:35;;;;;;;7.73;2.40;;;9.60;99.90;;;;;;5012959;28;20209;-71
2023/02/04 12:44:01;;;;;;;8.77;1.20;;;9.50;99.90;;;;;;5012853;28;20434;-71
2023/02/04 12:46:27;;;;;;;8.57;1.40;;;9.50;99.90;;;;;;5012569;28;20473;-70
2023/02/04 12:48:53;;;;;;;7.30;1.80;;;9.50;99.90;;;;;;5012740;28;20476;-70
2023/02/04 12:51:19;;;;;;;5.37;1.87;;;9.50;99.90;;;;;;5012529;28;20969;-72
2023/02/04 12:53:47;;;;;;;10.13;2.17;;;9.30;99.90;;;;;;5012717;28;20182;-71
2023/02/04 12:56:13;;;;;;;8.20;2.20;;;9.20;99.90;;;;;;5012517;28;20429;-69
2023/02/04 12:58:38;;;;;;;14.60;2.23;;;9.00;99.90;;;;;;5012569;28;20428;-70
2023/02/04 13:01:04;;;;;;;16.20;2.27;;;9.00;99.90;;;;;;5012529;28;20559;-70
2023/02/04 13:03:30;;;;;;;6.73;2.03;;;8.90;99.90;;;;;;5013399;28;20243;-70
2023/02/04 13:05:56;;;;;;;14.00;2.60;;;9.00;99.90;;;;;;5012274;28;20216;-71
2023/02/04 13:08:21;;;;;;;7.93;2.40;;;9.00;99.90;;;;;;5012596;28;20428;-70
2023/02/04 13:10:50;;;;;;;13.87;3.37;;;9.00;99.90;;;;;;5012799;28;20206;-69
2023/02/04 13:13:17;;;;;;;13.03;3.70;;;9.00;99.90;;;;;;5012237;28;20213;-70
2023/02/04 13:15:42;;;;;;;9.37;2.40;;;9.00;99.90;;;;;;5012023;28;20432;-70
2023/02/04 13:18:08;;;;;;;8.90;2.47;;;8.90;99.90;;;;;;5012339;28;20452;-70
2023/02/04 13:20:33;;;;;;;13.93;3.50;;;8.90;99.90;;;;;;5012220;28;20691;-70
2023/02/04 13:22:59;;;;;;;8.17;3.23;;;9.00;99.90;;;;;;5012319;28;20339;-70
2023/02/04 13:25:24;;;;;;;11.57;3.07;;;9.10;99.90;;;;;;5012081;28;20201;-70
2023/02/04 13:27:50;;;;;;;19.57;4.70;;;9.10;99.90;;;;;;5012126;28;20276;-70
2023/02/04 13:30:15;;;;;;;5.37;2.03;;;9.20;99.90;;;;;;5011997;28;20278;-69
2023/02/04 13:32:42;;;;;;;8.57;2.93;;;9.20;99.90;;;;;;5012095;28;20217;-72
2023/02/04 13:35:07;;;;;;;10.60;2.60;;;9.00;99.90;;;;;;5011878;28;20662;-70
2023/02/04 13:37:33;;;;;;;13.17;3.10;;;9.00;99.90;;;;;;5011818;28;20542;-70
2023/02/04 13:39:58;;;;;;;8.80;2.33;;;8.90;99.90;;;;;;5010936;28;20281;-70
2023/02/04 13:42:24;;;;;;;17.67;2.47;;;8.80;99.90;;;;;;5011920;28;20216;-70
2023/02/04 13:44:49;;;;;;;10.37;2.80;;;8.80;99.90;;;;;;5011373;28;20653;-70
2023/02/04 13:47:15;;;;;;;8.83;2.30;;;8.80;99.90;;;;;;5011624;28;20220;-70
2023/02/04 13:49:41;;;;;;;5.20;1.90;;;8.70;99.90;;;;;;5011602;28;20187;-70
2023/02/04 13:52:06;;;;;;;10.13;3.10;;;8.70;99.90;;;;;;5011765;28;20574;-71
2023/02/04 13:54:32;;;;;;;13.00;3.37;;;8.70;99.90;;;;;;5011647;28;20350;-69
2023/02/04 13:56:57;;;;;;;7.33;2.60;;;8.60;99.90;;;;;;5011659;28;20250;-70
2023/02/04 13:59:23;;;;;;;16.43;2.50;;;8.50;99.90;;;;;;5011446;28;20197;-70
2023/02/04 14:01:48;;;;;;;13.30;2.43;;;8.50;99.90;;;;;;5011207;28;20687;-70
2023/02/04 14:04:14;;;;;;;10.23;2.87;;;8.40;99.90;;;;;;5011156;28;20200;-69
2023/02/04 14:06:42;;;;;;;7.30;3.20;;;8.30;99.90;;;;;;5011319;28;20212;-70
2023/02/04 14:09:09;;;;;;;4.30;1.50;;;8.20;99.90;;;;;;5011562;28;20548;-70
2023/02/04 14:11:35;;;;;;;14.43;2.30;;;8.20;99.90;;;;;;5011416;28;20517;-70
2023/02/04 14:14:00;;;;;;;13.57;2.57;;;8.20;99.90;;;;;;5011298;28;20517;-71
2023/02/04 14:16:26;;;;;;;20.70;4.17;;;8.10;99.90;;;;;;5011058;28;20555;-71
2023/02/04 14:18:51;;;;;;;16.50;2.67;;;8.00;99.90;;;;;;5011400;28;20758;-71